Ladore — HBY4456 — position and weather

sailwx.info

Track history (hours):
 
Tides and Currents Weather Stations Pressure Air Temp Water Temp Dewpoint Dewpoint Depression Visibility Wind Speed Wind Dir Waves Ship Positions

Ladore

Last reported at 2014-Oct-19 10:32 UTC. Time now 2014-Nov-27 10:37 UTC.
Position N 38°52' E 008°35'.
Warning: this ship's position is 39 days out of date.

Length 17 m.

Type: Sailing vessel. MMSI: 269102720.

Date/timePositionNaut miles runAvg speedWind from/ knotsBaromVisibWave heightAir tempDewpointWater temp
2014-Oct-19 10:32N 38°52' E 008°35'14 6.7
2014-Oct-19 08:29N 38°52' E 008°53'6 6.5
2014-Oct-19 07:33N 38°55' E 008°59'7 6.6
2014-Oct-19 06:33N 39°01' E 009°04'7 6.7
2014-Oct-19 05:33N 39°07' E 009°06'5 4.9
2014-Oct-19 04:32N 39°12' E 009°08'0 0.0
2014-Oct-19 03:33N 39°12' E 009°08'0 0.0
2014-Oct-19 02:33N 39°12' E 009°08'0 0.0
2014-Oct-19 01:33N 39°12' E 009°08'0 0.0
2014-Oct-19 00:33N 39°12' E 009°08'0 0.0
2014-Oct-18 23:33N 39°12' E 009°08'0 0.0
2014-Oct-18 22:30N 39°12' E 009°08'0 0.0
2014-Oct-18 21:33N 39°12' E 009°08'0 0.0
2014-Oct-18 20:33N 39°12' E 009°08'0 0.0
2014-Oct-18 19:33N 39°12' E 009°08'0 0.0
2014-Oct-18 18:33N 39°12' E 009°08'0 0.0
2014-Oct-18 17:33N 39°12' E 009°08'0 0.0
2014-Oct-18 16:33N 39°12' E 009°08'0 0.0
2014-Oct-18 15:32N 39°12' E 009°08'  
Track history (hours):
 
Tides and Currents Weather Stations Pressure Air Temp Water Temp Dewpoint Dewpoint Depression Visibility Wind Speed Wind Dir Waves Ship Positions

Ladore

Last reported at 2014-Oct-19 10:32 UTC. Time now 2014-Nov-27 10:37 UTC.
Position N 38°52' E 008°35'.
Warning: this ship's position is 39 days out of date.

Length 17 m.

Type: Sailing vessel. MMSI: 269102720.

Date/timePositionNaut miles runAvg speedWind from/ knotsBaromVisibWave heightAir tempDewpointWater temp
2014-Oct-19 10:32N 38°52' E 008°35'14 6.7
2014-Oct-19 08:29N 38°52' E 008°53'6 6.5
2014-Oct-19 07:33N 38°55' E 008°59'7 6.6
2014-Oct-19 06:33N 39°01' E 009°04'7 6.7
2014-Oct-19 05:33N 39°07' E 009°06'5 4.9
2014-Oct-19 04:32N 39°12' E 009°08'0 0.0
2014-Oct-19 03:33N 39°12' E 009°08'0 0.0
2014-Oct-19 02:33N 39°12' E 009°08'0 0.0
2014-Oct-19 01:33N 39°12' E 009°08'0 0.0
2014-Oct-19 00:33N 39°12' E 009°08'0 0.0
2014-Oct-18 23:33N 39°12' E 009°08'0 0.0
2014-Oct-18 22:30N 39°12' E 009°08'0 0.0
2014-Oct-18 21:33N 39°12' E 009°08'0 0.0
2014-Oct-18 20:33N 39°12' E 009°08'0 0.0
2014-Oct-18 19:33N 39°12' E 009°08'0 0.0
2014-Oct-18 18:33N 39°12' E 009°08'0 0.0
2014-Oct-18 17:33N 39°12' E 009°08'0 0.0
2014-Oct-18 16:33N 39°12' E 009°08'0 0.0
2014-Oct-18 15:32N 39°12' E 009°08'  

Dump ship's entire track history